Time;durP1;ratioP1;P1;durP2;ratioP2;P2;SDS_P1;SDS_P2;PMS_P1;PMS_P2;Temp;Humidity;BMP_temperature;BMP_pressure;BME280_temperature;BME280_humidity;BME280_pressure;Samples;Min_cycle;Max_cycle;Signal;HPM_P1;HPM_P2
2021/03/03 00:02:01;;;;;;;2.17;1.83;;;;;;;3.49;70.75;102842.25;6049517;29;20240;-74
2021/03/03 00:05:23;;;;;;;8.03;1.83;;;;;;;3.47;70.62;102828.00;6049783;29;20195;-74
2021/03/03 00:08:30;;;;;;;5.30;1.87;;;;;;;3.31;71.45;102832.94;6048823;29;20510;-74
2021/03/03 00:11:34;;;;;;;2.83;1.90;;;;;;;3.36;71.37;102830.75;6048338;29;20267;-74
2021/03/03 00:14:38;;;;;;;2.00;1.80;;;;;;;3.39;71.33;102830.47;6049741;29;20193;-74
2021/03/03 00:17:41;;;;;;;6.03;1.77;;;;;;;3.36;72.17;102829.88;6049046;29;20244;-74
2021/03/03 00:20:45;;;;;;;1.77;1.70;;;;;;;3.44;71.79;102833.66;6048288;29;20239;-73
2021/03/03 00:23:48;;;;;;;4.37;1.93;;;;;;;3.33;72.49;102836.38;6049525;29;20235;-73
2021/03/03 00:26:52;;;;;;;4.40;1.97;;;;;;;3.45;72.05;102821.91;6049382;29;20226;-74
2021/03/03 00:29:56;;;;;;;1.83;1.73;;;;;;;3.55;71.18;102824.69;6047441;29;20209;-74
2021/03/03 00:33:05;;;;;;;2.47;1.80;;;;;;;3.58;71.39;102822.63;6049276;29;20195;-73
2021/03/03 00:36:10;;;;;;;5.03;1.83;;;;;;;3.41;72.54;102823.13;6047812;29;20449;-74
2021/03/03 00:39:14;;;;;;;3.47;1.77;;;;;;;3.54;72.53;102826.56;6048151;29;20381;-74
2021/03/03 00:42:19;;;;;;;1.87;1.77;;;;;;;3.57;72.20;102823.59;6048085;29;20202;-73
2021/03/03 00:45:23;;;;;;;3.93;1.73;;;;;;;3.34;72.83;102821.88;6048151;29;20200;-74
2021/03/03 00:48:31;;;;;;;1.60;1.50;;;;;;;3.50;72.56;102818.81;6048133;29;20221;-73
2021/03/03 00:51:38;;;;;;;1.63;1.53;;;;;;;3.59;72.40;102818.97;6031852;29;20389;-73
2021/03/03 00:54:43;;;;;;;5.43;1.87;;;;;;;3.57;72.35;102807.41;6047499;29;20553;-74
2021/03/03 00:57:50;;;;;;;1.67;1.57;;;;;;;3.59;72.68;102805.47;6031905;29;20532;-74
2021/03/03 01:01:11;;;;;;;3.23;1.93;;;;;;;3.53;72.68;102791.59;6047491;29;20210;-73
2021/03/03 01:04:23;;;;;;;6.90;1.90;;;;;;;3.61;72.08;102797.22;6046267;29;20530;-74
2021/03/03 01:07:43;;;;;;;2.03;1.50;;;;;;;3.61;72.09;102787.28;6045544;29;20412;-74
2021/03/03 01:10:47;;;;;;;2.87;1.70;;;;;;;3.62;72.33;102788.16;6031436;29;20273;-73
2021/03/03 01:13:54;;;;;;;1.60;1.60;;;;;;;3.62;72.55;102785.47;6031050;29;20217;-73
2021/03/03 01:17:01;;;;;;;2.67;1.60;;;;;;;3.62;72.89;102788.16;6032097;29;20249;-73
2021/03/03 01:20:14;;;;;;;2.07;1.50;;;;;;;3.64;73.18;102784.34;6047428;29;20234;-73
2021/03/03 01:23:20;;;;;;;4.43;1.53;;;;;;;3.68;72.83;102780.41;6047552;29;20510;-73
2021/03/03 01:26:24;;;;;;;1.80;1.70;;;;;;;3.67;73.29;102770.56;6048138;29;20221;-73
2021/03/03 01:29:30;;;;;;;1.47;1.37;;;;;;;3.61;73.51;102765.69;6048056;29;20194;-73
2021/03/03 01:32:38;;;;;;;1.70;1.60;;;;;;;3.64;74.25;102768.16;6047003;29;20215;-74
2021/03/03 01:35:41;;;;;;;1.50;1.50;;;;;;;3.70;73.99;102764.94;6046961;29;20217;-73
2021/03/03 01:38:44;;;;;;;1.60;1.60;;;;;;;3.76;73.85;102750.94;6048230;29;20198;-73
2021/03/03 01:41:47;;;;;;;2.40;1.80;;;;;;;3.75;73.43;102751.91;6047943;29;20223;-73
2021/03/03 01:44:52;;;;;;;2.97;1.63;;;;;;;3.70;74.20;102727.13;6047013;29;20510;-74
2021/03/03 01:47:56;;;;;;;3.50;1.60;;;;;;;3.82;74.44;102740.59;6030983;29;20232;-74
2021/03/03 01:51:00;;;;;;;2.13;1.67;;;;;;;3.85;73.42;102740.38;6047061;29;20222;-74
2021/03/03 01:54:06;;;;;;;2.37;1.60;;;;;;;3.92;73.72;102728.06;6046766;29;20242;-74
2021/03/03 01:57:11;;;;;;;3.80;1.73;;;;;;;3.90;73.46;102728.19;6047999;29;20271;-73
2021/03/03 02:00:17;;;;;;;2.73;1.70;;;;;;;3.75;74.56;102713.25;6048372;29;20205;-73
2021/03/03 02:03:38;;;;;;;1.37;1.37;;;;;;;3.89;73.62;102712.97;6074147;23;20233;-73
2021/03/03 02:06:49;;;;;;;2.03;1.83;;;;;;;3.88;74.10;102719.34;6094231;29;20245;-73
2021/03/03 02:10:02;;;;;;;5.57;1.70;;;;;;;4.01;73.37;102697.56;6094049;29;20200;-73
2021/03/03 02:13:18;;;;;;;3.03;1.67;;;;;;;3.99;73.22;102688.72;6092933;29;20390;-73
2021/03/03 02:16:23;;;;;;;1.53;1.37;;;;;;;4.09;73.06;102695.06;6093808;29;20298;-74
2021/03/03 02:19:30;;;;;;;1.70;1.30;;;;;;;4.14;73.33;102691.00;6096903;29;20239;-73
2021/03/03 02:22:43;;;;;;;1.50;1.50;;;;;;;4.16;73.61;102685.47;6097964;29;20192;-73
2021/03/03 02:25:49;;;;;;;2.83;1.60;;;;;;;4.21;72.92;102683.25;6080957;29;20297;-74
2021/03/03 02:28:52;;;;;;;2.23;1.53;;;;;;;4.30;72.25;102660.81;6096923;29;20384;-74
2021/03/03 02:32:17;;;;;;;2.10;1.67;;;;;;;4.34;72.33;102659.56;6098299;29;20191;-74
2021/03/03 02:35:21;;;;;;;1.50;1.50;;;;;;;4.32;73.10;102664.25;6080429;29;20216;-74
2021/03/03 02:38:25;;;;;;;2.07;1.30;;;;;;;4.40;72.41;102662.59;6097838;29;20198;-74
2021/03/03 02:41:32;;;;;;;4.50;1.23;;;;;;;4.44;71.67;102663.19;6097524;29;20190;-73
2021/03/03 02:44:37;;;;;;;1.43;1.43;;;;;;;4.53;71.70;102662.38;6097601;29;20262;-73
2021/03/03 02:47:41;;;;;;;1.27;1.27;;;;;;;4.53;71.47;102656.97;6096539;29;20406;-73
2021/03/03 02:50:45;;;;;;;1.50;1.50;;;;;;;4.57;71.79;102642.19;6097839;29;20223;-73
2021/03/03 02:53:49;;;;;;;1.43;1.43;;;;;;;4.49;71.43;102639.31;6097812;29;20241;-74
2021/03/03 02:56:53;;;;;;;1.40;1.40;;;;;;;4.65;70.59;102638.84;6097785;29;20202;-73
2021/03/03 02:59:57;;;;;;;1.37;1.37;;;;;;;4.62;70.69;102628.28;6097348;29;20257;-74
2021/03/03 03:03:09;;;;;;;1.47;1.47;;;;;;;4.70;70.85;102618.50;6096156;29;20487;-74
2021/03/03 03:06:19;;;;;;;1.40;1.40;;;;;;;4.70;71.10;102618.50;6097513;29;20232;-73
2021/03/03 03:09:25;;;;;;;1.33;1.33;;;;;;;4.72;71.03;102616.53;6096965;29;20218;-73
2021/03/03 03:12:30;;;;;;;1.30;1.30;;;;;;;4.76;70.19;102609.84;6096102;29;20191;-73
2021/03/03 03:15:34;;;;;;;1.77;1.50;;;;;;;4.77;70.29;102595.34;6096856;29;20191;-74
2021/03/03 03:18:43;;;;;;;1.43;1.40;;;;;;;4.85;70.32;102598.19;6095748;29;20425;-73
2021/03/03 03:21:50;;;;;;;1.30;1.30;;;;;;;4.83;70.49;102594.78;6095836;29;20254;-74
2021/03/03 03:24:54;;;;;;;1.20;1.20;;;;;;;4.77;70.22;102584.53;6096783;29;20190;-74
2021/03/03 03:28:00;;;;;;;2.30;1.40;;;;;;;4.87;70.61;102593.53;6096973;29;20264;-73
2021/03/03 03:31:06;;;;;;;2.63;1.47;;;;;;;4.85;70.28;102587.38;6096057;29;20197;-74
2021/03/03 03:34:12;;;;;;;2.07;1.33;;;;;;;4.86;70.15;102580.97;6096769;29;20193;-73
2021/03/03 03:37:16;;;;;;;1.90;1.30;;;;;;;4.85;70.23;102571.16;6096702;29;20194;-73
2021/03/03 03:40:22;;;;;;;1.70;1.37;;;;;;;4.93;70.30;102563.19;6096688;29;20192;-74
2021/03/03 03:43:26;;;;;;;1.33;1.20;;;;;;;4.89;70.10;102561.78;6095337;29;20239;-74
2021/03/03 03:46:30;;;;;;;2.60;1.23;;;;;;;5.01;69.40;102560.66;6095450;29;20366;-73
2021/03/03 03:49:35;;;;;;;4.33;1.40;;;;;;;4.99;69.72;102562.66;6096098;29;20288;-74
2021/03/03 03:52:39;;;;;;;6.13;1.50;;;;;;;4.98;70.03;102550.09;6096237;29;20192;-74
2021/03/03 03:55:42;;;;;;;1.60;1.50;;;;;;;4.98;69.63;102560.94;6096576;29;20262;-74
2021/03/03 03:58:46;;;;;;;2.37;1.37;;;;;;;4.97;70.04;102545.72;6095624;29;20199;-74
2021/03/03 04:01:50;;;;;;;3.53;1.40;;;;;;;4.96;70.48;102546.69;6096260;29;20191;-74
2021/03/03 04:04:54;;;;;;;1.60;1.50;;;;;;;4.79;70.65;102536.56;6095638;29;20521;-74
2021/03/03 04:07:58;;;;;;;4.40;1.57;;;;;;;4.90;70.35;102525.63;6094689;29;20286;-74
2021/03/03 04:11:01;;;;;;;2.00;1.33;;;;;;;4.90;70.11;102525.63;6095979;29;20254;-75
2021/03/03 04:14:09;;;;;;;4.57;1.53;;;;;;;4.84;70.36;102520.78;6095974;29;20197;-73
2021/03/03 04:17:14;;;;;;;6.23;1.93;;;;;;;4.78;71.14;102515.91;6095547;29;20198;-73
2021/03/03 04:20:19;;;;;;;6.20;1.70;;;;;;;4.76;71.31;102528.72;6094543;29;20536;-74
2021/03/03 04:23:22;;;;;;;1.80;1.50;;;;;;;4.77;71.04;102518.75;6095457;29;20203;-73
2021/03/03 04:26:26;;;;;;;2.17;1.50;;;;;;;4.58;71.91;102508.75;6095686;29;20199;-73
2021/03/03 04:29:30;;;;;;;4.90;1.40;;;;;;;4.70;71.41;102507.63;6095174;29;20222;-73
2021/03/03 04:32:34;;;;;;;4.07;1.60;;;;;;;4.47;71.95;102500.72;6095452;29;20198;-74
2021/03/03 04:35:37;;;;;;;5.43;1.53;;;;;;;4.53;72.91;102505.59;6078371;29;20552;-73
2021/03/03 04:38:40;;;;;;;1.47;1.37;;;;;;;4.37;72.98;102494.44;6095662;29;20221;-73
2021/03/03 04:41:44;;;;;;;2.17;2.03;;;;;;;4.36;73.09;102488.22;6093325;29;20483;-74
2021/03/03 04:44:48;;;;;;;1.40;1.40;;;;;;;4.27;73.20;102482.75;6095510;29;20240;-73
2021/03/03 04:47:51;;;;;;;5.13;1.80;;;;;;;4.34;73.43;102483.91;6079177;29;20229;-74
2021/03/03 04:50:55;;;;;;;3.97;1.70;;;;;;;4.31;73.02;102484.19;6094909;29;20254;-74
2021/03/03 04:53:58;;;;;;;2.13;1.93;;;;;;;4.21;73.54;102477.91;6093627;29;20386;-74
2021/03/03 04:57:02;;;;;;;2.00;1.40;;;;;;;4.14;74.30;102471.31;6094814;29;20192;-73
2021/03/03 05:00:09;;;;;;;1.73;1.63;;;;;;;4.11;74.58;102487.81;6095060;29;20197;-73
2021/03/03 05:03:25;;;;;;;1.70;1.70;;;;;;;4.08;74.80;102478.13;6093614;29;20469;-73
2021/03/03 05:06:30;;;;;;;2.87;1.87;;;;;;;4.00;74.62;102463.59;6093241;29;20259;-73
2021/03/03 05:09:33;;;;;;;5.83;2.00;;;;;;;4.14;74.45;102471.31;6093606;29;20523;-74
2021/03/03 05:12:37;;;;;;;2.53;1.60;;;;;;;4.01;74.94;102460.72;6094790;29;20233;-73
2021/03/03 05:15:41;;;;;;;3.87;1.77;;;;;;;4.05;75.37;102461.34;6093410;29;20425;-73
2021/03/03 05:18:44;;;;;;;2.27;2.03;;;;;;;4.11;74.65;102455.41;6094801;29;20213;-74
2021/03/03 05:21:48;;;;;;;4.93;1.80;;;;;;;4.06;74.75;102441.41;6092732;29;20241;-74
2021/03/03 05:24:51;;;;;;;1.90;1.80;;;;;;;4.09;74.84;102435.75;6094380;29;20194;-73
2021/03/03 05:27:54;;;;;;;2.33;1.70;;;;;;;4.07;74.89;102443.13;6093366;29;20220;-73
2021/03/03 05:30:59;;;;;;;2.50;2.10;;;;;;;3.96;75.16;102435.97;6094662;29;20193;-73
2021/03/03 05:34:03;;;;;;;5.90;1.90;;;;;;;3.76;76.06;102412.59;6093321;29;20365;-73
2021/03/03 05:37:06;;;;;;;4.27;2.10;;;;;;;3.82;76.42;102427.41;6094313;29;20191;-74
2021/03/03 05:40:11;;;;;;;6.43;2.10;;;;;;;3.86;76.29;102434.22;6094274;29;20197;-74
2021/03/03 05:43:19;;;;;;;4.17;2.17;;;;;;;3.84;76.81;102436.22;6093274;29;20502;-74
2021/03/03 05:46:24;;;;;;;5.03;2.20;;;;;;;3.74;76.05;102420.84;6094511;29;20193;-74
2021/03/03 05:49:28;;;;;;;4.17;2.00;;;;;;;3.71;77.04;102407.59;6092333;29;20300;-74
2021/03/03 05:52:33;;;;;;;6.70;2.37;;;;;;;3.87;76.44;102419.75;6095902;29;20229;-75
2021/03/03 05:55:36;;;;;;;4.40;2.10;;;;;;;3.77;76.81;102409.72;6098691;29;20242;-73
2021/03/03 05:58:41;;;;;;;2.23;2.00;;;;;;;3.68;76.51;102409.69;6090930;29;20202;-74
2021/03/03 06:01:46;;;;;;;2.33;2.13;;;;;;;3.76;77.14;102413.44;6097542;29;20369;-73
2021/03/03 06:04:59;;;;;;;2.33;2.10;;;;;;;3.80;76.77;102408.59;6097447;29;20245;-73
2021/03/03 06:08:03;;;;;;;38.60;11.63;;;;;;;3.64;78.36;102402.88;6098187;29;20220;-73
2021/03/03 06:11:07;;;;;;;29.70;10.40;;;;;;;3.59;78.13;102399.72;6098641;29;20192;-73
2021/03/03 06:14:11;;;;;;;30.50;11.67;;;;;;;3.59;78.00;102397.88;6098243;29;20343;-75
2021/03/03 06:17:16;;;;;;;33.53;10.47;;;;;;;3.71;77.98;102394.09;6097284;29;20380;-75
2021/03/03 06:20:19;;;;;;;34.03;9.23;;;;;;;3.67;78.11;102398.03;6098319;29;20204;-73
2021/03/03 06:23:24;;;;;;;25.57;6.77;;;;;;;3.59;77.97;102379.00;6098496;29;20193;-74
2021/03/03 06:26:28;;;;;;;16.03;4.97;;;;;;;3.62;77.96;102384.09;6097995;29;20193;-74
2021/03/03 06:29:31;;;;;;;7.73;3.47;;;;;;;3.57;77.92;102380.94;6096817;29;20483;-73
2021/03/03 06:32:53;;;;;;;12.50;3.10;;;;;;;3.71;78.04;102375.19;6097275;29;20207;-74
2021/03/03 06:35:56;;;;;;;4.70;2.87;;;;;;;3.70;77.38;102369.91;6097799;29;20201;-73
2021/03/03 06:39:15;;;;;;;4.23;2.50;;;;;;;3.77;77.10;102361.13;6098109;29;20197;-72
2021/03/03 06:42:26;;;;;;;4.93;2.50;;;;;;;3.77;77.35;102361.13;6096614;29;20498;-73
2021/03/03 06:45:31;;;;;;;5.90;2.40;;;;;;;3.78;77.40;102351.19;6097149;29;20354;-73
2021/03/03 06:48:38;;;;;;;7.50;2.30;;;;;;;3.70;77.53;102362.69;6097616;29;20220;-73
2021/03/03 06:51:42;;;;;;;9.23;2.20;;;;;;;3.63;78.63;102363.38;6097523;29;20271;-74
2021/03/03 06:54:45;;;;;;;8.10;2.33;;;;;;;3.75;77.76;102357.72;6097281;29;20255;-73
2021/03/03 06:57:48;;;;;;;14.13;2.27;;;;;;;3.83;77.36;102353.53;6097079;29;20224;-73
2021/03/03 07:00:53;;;;;;;5.73;2.77;;;;;;;3.78;77.47;102356.59;6095896;29;20474;-74
2021/03/03 07:04:29;;;;;;;13.83;2.70;;;;;;;3.89;77.65;102343.00;6095368;29;20271;-73
2021/03/03 07:07:32;;;;;;;12.60;3.00;;;;;;;3.90;77.51;102338.47;6097068;29;20193;-73
2021/03/03 07:10:36;;;;;;;7.97;2.50;;;;;;;3.80;77.92;102328.47;6095956;29;20227;-74
2021/03/03 07:13:40;;;;;;;7.57;2.70;;;;;;;3.82;78.18;102320.25;6097401;29;20192;-74
2021/03/03 07:17:17;;;;;;;12.53;2.70;;;;;;;3.93;77.81;102313.91;6097321;29;20192;-74
2021/03/03 07:20:21;;;;;;;11.40;2.53;;;;;;;3.95;77.49;102309.22;6097073;29;20203;-73
2021/03/03 07:23:55;;;;;;;3.57;2.27;;;;;;;4.03;76.78;102303.97;6096643;29;20197;-74
2021/03/03 07:26:58;;;;;;;3.27;2.20;;;;;;;3.69;78.74;102303.44;6063193;29;20421;-74
2021/03/03 07:30:07;;;;;;;2.37;2.23;;;;;;;3.73;77.92;102288.66;6096762;29;20247;-74
2021/03/03 07:33:20;;;;;;;6.33;2.20;;;;;;;3.32;80.78;102302.28;6095465;29;20197;-74
2021/03/03 07:36:25;;;;;;;3.07;2.10;;;;;;;3.58;80.11;102293.59;6096555;29;20240;-74
2021/03/03 07:39:34;;;;;;;6.57;2.23;;;;;;;3.80;78.32;102293.38;6096884;29;20303;-73
2021/03/03 07:42:39;;;;;;;4.00;2.30;;;;;;;3.74;78.65;102283.16;6095404;29;20439;-77
2021/03/03 07:45:42;;;;;;;3.70;2.97;;;;;;;3.88;78.44;102289.16;6087868;29;20472;-74
2021/03/03 07:48:51;;;;;;;7.07;2.60;;;;;;;3.86;78.23;102283.00;6078987;29;20406;-74
2021/03/03 07:51:57;;;;;;;7.67;2.47;;;;;;;3.85;78.40;102286.72;6096335;29;20199;-74
2021/03/03 07:55:00;;;;;;;8.10;2.30;;;;;;;3.79;78.93;102283.59;6096166;29;20267;-73
2021/03/03 07:58:10;;;;;;;2.40;2.20;;;;;;;3.94;77.17;102280.47;6095926;29;20193;-74
2021/03/03 08:01:13;;;;;;;7.20;2.37;;;;;;;4.04;77.40;102286.75;6095467;29;20192;-73
2021/03/03 08:04:35;;;;;;;7.60;3.27;;;;;;;4.07;77.36;102289.19;6095347;29;20644;-74
2021/03/03 08:07:41;;;;;;;5.33;2.40;;;;;;;3.83;77.94;102278.75;6095626;29;20192;-74
2021/03/03 08:10:51;;;;;;;10.87;3.07;;;;;;;3.89;77.64;102272.81;6093854;29;20523;-74
2021/03/03 08:13:55;;;;;;;5.83;2.23;;;;;;;3.86;78.01;102273.06;6095656;29;20199;-73
2021/03/03 08:17:01;;;;;;;5.90;3.00;;;;;;;4.00;77.85;102263.72;6095077;29;20193;-73
2021/03/03 08:20:07;;;;;;;13.53;2.60;;;;;;;3.76;78.33;102262.25;6095340;29;20201;-74
2021/03/03 08:23:44;;;;;;;9.53;2.93;;;;;;;3.88;77.60;102254.88;6079737;29;20197;-74
2021/03/03 08:26:48;;;;;;;2.80;2.20;;;;;;;3.89;78.55;102240.41;6094170;29;20264;-78
2021/03/03 08:30:13;;;;;;;6.57;2.27;;;;;;;3.82;78.29;102249.19;6093960;29;20302;-74
2021/03/03 08:33:34;;;;;;;2.53;2.33;;;;;;;4.01;77.99;102243.81;6095112;29;20231;-75
2021/03/03 08:37:04;;;;;;;5.37;2.57;;;;;;;3.89;77.68;102239.53;6095072;29;20233;-74
2021/03/03 08:43:48;;;;;;;12.53;3.37;;;;;;;4.01;77.54;102238.41;6384982;27;20736;-74
2021/03/03 08:46:53;;;;;;;4.43;2.83;;;;;;;4.21;76.67;102218.53;6359263;28;20271;-73
2021/03/03 08:50:32;;;;;;;8.83;2.60;;;;;;;4.06;77.15;102214.53;6359427;28;20184;-73
2021/03/03 08:53:36;;;;;;;3.13;2.23;;;;;;;4.17;77.06;102228.75;6359340;28;20248;-72
2021/03/03 08:56:41;;;;;;;7.37;2.80;;;;;;;4.19;76.65;102220.50;6357942;28;20371;-73
2021/03/03 08:59:46;;;;;;;7.40;2.70;;;;;;;3.90;78.02;102225.06;6358782;28;20207;-72
2021/03/03 09:02:49;;;;;;;7.00;2.93;;;;;;;4.18;77.00;102213.41;6357458;28;20213;-72
2021/03/03 09:05:55;;;;;;;6.87;2.70;;;;;;;4.16;76.73;102210.00;6357567;28;20223;-72
2021/03/03 09:09:06;;;;;;;4.47;2.37;;;;;;;4.17;76.50;102195.50;6358799;28;20230;-72
2021/03/03 09:12:14;;;;;;;4.20;2.30;;;;;;;4.31;76.21;102208.59;6357565;28;20190;-73
2021/03/03 09:15:18;;;;;;;9.93;2.20;;;;;;;4.34;76.13;102197.47;6339178;28;20488;-74
2021/03/03 09:18:36;;;;;;;13.03;2.40;;;;;;;4.45;75.08;102200.03;6342369;28;20185;-73
2021/03/03 09:21:40;;;;;;;11.10;2.60;;;;;;;4.37;75.64;102183.66;6339258;28;20299;-73
2021/03/03 09:24:46;;;;;;;7.83;2.93;;;;;;;4.50;75.30;102176.09;6358266;28;20256;-73
2021/03/03 09:27:54;;;;;;;8.37;2.70;;;;;;;4.56;75.18;102174.69;6358080;28;20193;-73
2021/03/03 09:30:58;;;;;;;14.47;2.87;;;;;;;4.53;75.52;102164.16;6357961;28;20256;-74
2021/03/03 09:34:03;;;;;;;5.23;2.07;;;;;;;4.59;74.18;102169.00;6358305;28;20262;-74
2021/03/03 09:37:07;;;;;;;8.10;2.87;;;;;;;4.57;74.58;102144.78;6339315;28;20241;-74
2021/03/03 09:40:12;;;;;;;11.33;2.80;;;;;;;4.60;74.42;102144.50;6357303;28;20184;-74
2021/03/03 09:43:19;;;;;;;22.33;3.20;;;;;;;4.73;73.83;102139.63;6357185;28;20535;-73
2021/03/03 09:46:24;;;;;;;12.77;2.90;;;;;;;4.81;74.17;102137.03;6356496;28;20502;-73
2021/03/03 09:49:29;;;;;;;7.60;2.40;;;;;;;4.80;74.05;102134.50;6357824;28;20193;-74
2021/03/03 09:52:34;;;;;;;3.30;2.43;;;;;;;4.78;74.00;102137.31;6353398;28;20363;-73
2021/03/03 09:55:38;;;;;;;2.77;1.97;;;;;;;4.55;74.51;102125.16;6321506;28;20206;-73
2021/03/03 09:58:42;;;;;;;6.70;2.30;;;;;;;4.58;74.78;102115.91;6340499;28;20187;-74
2021/03/03 10:01:47;;;;;;;6.60;2.43;;;;;;;4.74;74.41;102114.31;6339788;28;20221;-74
2021/03/03 10:04:59;;;;;;;4.57;2.43;;;;;;;4.90;73.51;102125.34;6340842;28;20185;-73
2021/03/03 10:08:06;;;;;;;3.33;2.00;;;;;;;4.83;73.05;102108.00;6341296;28;20184;-74
2021/03/03 10:11:11;;;;;;;3.00;2.80;;;;;;;4.89;73.07;102112.81;6340625;28;20248;-74
2021/03/03 10:14:15;;;;;;;10.37;2.80;;;;;;;4.89;73.03;102106.53;6340258;28;20193;-74
2021/03/03 10:17:32;;;;;;;7.50;2.90;;;;;;;4.93;72.63;102081.75;6340122;28;20184;-74
2021/03/03 10:20:38;;;;;;;3.10;2.43;;;;;;;4.90;73.33;102097.44;6320856;28;20199;-74
2021/03/03 10:23:43;;;;;;;2.93;2.40;;;;;;;4.94;73.17;102099.69;6340130;28;20209;-75
2021/03/03 10:26:46;;;;;;;11.93;2.23;;;;;;;5.03;72.86;102093.38;6338934;28;20468;-74
2021/03/03 10:29:50;;;;;;;7.50;2.33;;;;;;;5.05;72.42;102080.56;6338714;28;20190;-74
2021/03/03 10:32:55;;;;;;;6.90;2.03;;;;;;;5.09;72.76;102081.09;6322214;28;20206;-74
2021/03/03 10:36:00;;;;;;;3.43;2.17;;;;;;;4.93;73.18;102081.75;6323241;28;20268;-74
2021/03/03 10:39:04;;;;;;;4.10;2.27;;;;;;;4.93;73.08;102081.75;6340110;28;20267;-73
2021/03/03 10:42:08;;;;;;;6.73;2.30;;;;;;;5.01;73.11;102081.00;6312114;28;20370;-75
2021/03/03 10:45:22;;;;;;;13.03;2.33;;;;;;;5.13;72.49;102070.84;6313404;28;20474;-75
2021/03/03 10:48:31;;;;;;;5.80;2.53;;;;;;;5.19;72.32;102067.53;6312290;28;20193;-73
2021/03/03 10:51:36;;;;;;;5.60;2.40;;;;;;;5.32;72.42;102076.09;6314607;28;20189;-73
2021/03/03 10:54:40;;;;;;;7.73;2.20;;;;;;;5.36;72.02;102069.41;6314402;28;20232;-74
2021/03/03 10:58:01;;;;;;;10.03;2.37;;;;;;;5.45;71.38;102066.59;6314124;28;20186;-74
2021/03/03 11:01:06;;;;;;;2.60;2.20;;;;;;;5.37;71.72;102054.84;6313703;28;20192;-73
2021/03/03 11:04:20;;;;;;;32.97;3.70;;;;;;;5.30;72.52;102056.47;6313103;28;20189;-73
2021/03/03 11:07:30;;;;;;;3.97;2.40;;;;;;;5.42;72.02;102049.81;6312894;28;20413;-75
2021/03/03 11:10:35;;;;;;;3.90;2.27;;;;;;;5.42;71.62;102052.53;6312762;28;20492;-73
2021/03/03 11:13:39;;;;;;;3.43;2.20;;;;;;;5.31;72.14;102047.34;6314013;28;20236;-74
2021/03/03 11:16:44;;;;;;;2.40;2.10;;;;;;;5.58;71.01;102044.56;6312496;28;20477;-74
2021/03/03 11:19:49;;;;;;;6.20;2.23;;;;;;;5.55;71.04;102036.75;6312735;28;20260;-73
2021/03/03 11:22:52;;;;;;;4.50;2.03;;;;;;;5.53;71.67;102036.06;6313645;28;20236;-73
2021/03/03 11:25:57;;;;;;;2.27;2.17;;;;;;;5.57;71.19;102023.94;6312826;28;20194;-74
2021/03/03 11:29:01;;;;;;;5.30;2.23;;;;;;;5.69;70.01;102009.13;6311443;28;20253;-74
2021/03/03 11:32:06;;;;;;;8.97;2.30;;;;;;;5.58;70.76;101995.84;6311890;28;20205;-74
2021/03/03 11:35:16;;;;;;;4.30;2.30;;;;;;;5.59;70.72;101992.13;6312751;28;20190;-74
2021/03/03 11:38:21;;;;;;;2.13;1.90;;;;;;;5.68;70.69;101986.59;6313158;28;20186;-75
2021/03/03 11:41:26;;;;;;;3.33;2.00;;;;;;;5.70;70.15;101983.72;6318367;28;20304;-74
2021/03/03 11:44:29;;;;;;;5.87;2.20;;;;;;;5.69;70.60;101984.75;6338493;28;20217;-73
2021/03/03 11:47:33;;;;;;;6.33;1.80;;;;;;;5.79;69.86;101974.69;6337073;28;20450;-74
2021/03/03 11:50:38;;;;;;;2.03;1.93;;;;;;;5.69;70.41;101965.81;6337278;28;20263;-74
2021/03/03 11:53:42;;;;;;;2.30;2.10;;;;;;;5.69;70.40;101972.06;6336840;28;20539;-74
2021/03/03 11:56:46;;;;;;;5.93;3.87;;;;;;;5.79;70.27;101966.56;6338145;28;20185;-73
2021/03/03 11:59:51;;;;;;;9.10;2.50;;;;;;;5.87;70.23;101958.53;6319081;28;20435;-73
2021/03/03 12:02:54;;;;;;;3.73;2.40;;;;;;;5.70;69.97;101952.09;6337544;28;20275;-74
2021/03/03 12:05:59;;;;;;;8.60;2.10;;;;;;;5.34;71.80;101950.44;6319311;28;20379;-74
2021/03/03 12:09:04;;;;;;;5.00;2.20;;;;;;;5.64;71.16;101938.34;6337958;28;20192;-73
2021/03/03 12:12:12;;;;;;;1.57;1.57;;;;;;;5.51;70.76;101924.38;6320422;28;20243;-74
2021/03/03 12:15:16;;;;;;;2.93;2.20;;;;;;;5.51;71.79;101919.81;6337688;28;20217;-74
2021/03/03 12:18:25;;;;;;;3.00;2.10;;;;;;;5.70;70.68;101907.91;6336722;28;20189;-74
2021/03/03 12:21:30;;;;;;;2.23;2.23;;;;;;;5.77;70.48;101898.16;6337482;28;20192;-74
2021/03/03 12:24:34;;;;;;;13.03;2.83;;;;;;;5.85;70.57;101887.41;6336888;28;20252;-73
2021/03/03 12:27:38;;;;;;;2.53;2.37;;;;;;;5.67;70.48;101887.41;6337262;28;20185;-73
2021/03/03 12:30:41;;;;;;;15.87;2.70;;;;;;;5.60;71.43;101874.69;6337085;28;20191;-73
2021/03/03 12:33:46;;;;;;;6.53;3.17;;;;;;;5.71;71.27;101866.31;6336379;28;20354;-74
2021/03/03 12:36:50;;;;;;;4.30;2.83;;;;;;;5.69;71.30;101869.19;6337773;28;20185;-74
2021/03/03 12:39:53;;;;;;;15.77;3.03;;;;;;;5.65;71.70;101861.50;6337465;28;20216;-74
2021/03/03 12:42:57;;;;;;;16.33;2.77;;;;;;;5.83;70.58;101854.16;6336645;28;20236;-74
2021/03/03 12:46:00;;;;;;;3.67;2.50;;;;;;;5.77;70.96;101844.00;6318784;28;20201;-74
2021/03/03 12:49:05;;;;;;;3.87;2.57;;;;;;;5.65;71.25;101839.84;6337666;28;20186;-74
2021/03/03 12:52:12;;;;;;;4.87;2.50;;;;;;;5.76;71.41;101853.13;6336034;28;20524;-74
2021/03/03 12:55:35;;;;;;;3.33;2.73;;;;;;;5.76;71.25;101842.28;6336351;28;20382;-74
2021/03/03 12:58:38;;;;;;;2.90;2.70;;;;;;;5.43;71.54;101829.59;6336190;28;20530;-75
2021/03/03 13:01:41;;;;;;;3.30;3.00;;;;;;;5.57;72.04;101827.13;6337077;28;20191;-73
2021/03/03 13:04:45;;;;;;;4.67;2.70;;;;;;;5.85;70.95;101819.72;6335994;28;20219;-75
2021/03/03 13:07:50;;;;;;;4.53;2.97;;;;;;;5.43;72.88;101813.34;6337226;28;20185;-74
2021/03/03 13:10:53;;;;;;;10.83;3.03;;;;;;;5.35;73.19;101810.59;6337267;28;20230;-74
2021/03/03 13:13:56;;;;;;;2.93;2.83;;;;;;;5.44;72.75;101809.63;6337067;28;20190;-74
2021/03/03 13:17:01;;;;;;;7.27;2.80;;;;;;;5.49;72.06;101780.22;6318467;28;20418;-74
2021/03/03 13:20:08;;;;;;;3.80;3.17;;;;;;;5.72;71.93;101803.03;6336942;28;20184;-74
2021/03/03 13:23:18;;;;;;;3.13;2.93;;;;;;;5.58;71.62;101795.50;6336885;28;20300;-74
2021/03/03 13:26:22;;;;;;;3.30;3.00;;;;;;;5.54;72.12;101786.00;6336000;28;20192;-73
2021/03/03 13:29:25;;;;;;;4.83;3.10;;;;;;;5.65;72.26;101775.72;6338717;28;20184;-73
2021/03/03 13:32:28;;;;;;;5.70;2.90;;;;;;;5.76;71.29;101780.00;6341646;28;20190;-74
2021/03/03 13:35:32;;;;;;;3.00;2.90;;;;;;;5.75;71.78;101772.91;6341221;28;20188;-73
2021/03/03 13:38:36;;;;;;;4.00;2.67;;;;;;;5.86;71.17;101760.94;6322521;28;20200;-73
2021/03/03 13:41:40;;;;;;;3.63;2.73;;;;;;;5.75;71.72;101759.38;6341004;28;20228;-73
2021/03/03 13:44:43;;;;;;;11.00;3.03;;;;;;;5.67;71.92;101756.63;6340017;28;20553;-73
2021/03/03 13:47:46;;;;;;;2.80;2.63;;;;;;;5.62;72.13;101753.56;6323159;28;20202;-74
2021/03/03 13:50:50;;;;;;;2.93;2.83;;;;;;;5.62;72.67;101753.56;6321921;28;20201;-73
2021/03/03 13:53:59;;;;;;;3.30;2.63;;;;;;;5.52;72.67;101752.84;6339744;28;20372;-72
2021/03/03 13:57:07;;;;;;;2.90;2.70;;;;;;;5.36;73.04;101744.63;6340474;28;20230;-72
2021/03/03 14:00:12;;;;;;;4.23;2.63;;;;;;;5.36;73.40;101741.94;6340509;28;20190;-73
2021/03/03 14:03:30;;;;;;;7.27;2.80;;;;;;;5.56;72.86;101737.97;6323671;28;20413;-72
2021/03/03 14:06:38;;;;;;;3.00;2.90;;;;;;;5.46;72.69;101742.66;6340710;28;20185;-72
2021/03/03 14:09:42;;;;;;;3.10;2.90;;;;;;;5.51;72.99;101745.72;6340459;28;20218;-73
2021/03/03 14:12:46;;;;;;;2.97;2.53;;;;;;;5.48;72.54;101729.81;6339656;28;20225;-73
2021/03/03 14:15:49;;;;;;;5.07;2.70;;;;;;;5.24;73.39;101716.16;6338963;28;20373;-73
2021/03/03 14:18:53;;;;;;;3.03;2.90;;;;;;;5.29;73.38;101714.66;6322015;28;20199;-73
2021/03/03 14:21:58;;;;;;;3.07;2.80;;;;;;;5.27;73.71;101721.25;6339476;28;20186;-73
2021/03/03 14:25:02;;;;;;;3.13;2.63;;;;;;;5.28;74.00;101706.72;6340230;28;20216;-73
2021/03/03 14:28:13;;;;;;;2.83;2.63;;;;;;;5.39;73.60;101715.38;6339051;28;20232;-73
2021/03/03 14:31:19;;;;;;;3.40;3.10;;;;;;;5.31;73.53;101712.66;6339636;28;20193;-73
2021/03/03 14:34:22;;;;;;;2.90;2.80;;;;;;;5.08;74.40;101706.94;6340145;28;20227;-73
2021/03/03 14:37:25;;;;;;;3.00;2.80;;;;;;;5.27;73.36;101710.41;6339676;28;20190;-73
2021/03/03 14:40:31;;;;;;;2.57;2.47;;;;;;;5.31;73.41;101706.41;6339923;28;20192;-73